createdAt,value
2018-02-10T00:02:19.631Z,46.97
2018-02-10T00:04:47.086Z,47.20
2018-02-10T00:07:14.944Z,47.17
2018-02-10T00:09:42.473Z,51.97
2018-02-10T00:12:09.922Z,55.97
2018-02-10T00:14:37.619Z,55.57
2018-02-10T00:17:05.062Z,45.90
2018-02-10T00:19:32.513Z,63.50
2018-02-10T00:22:00.398Z,48.27
2018-02-10T00:24:27.856Z,59.87
2018-02-10T00:26:55.297Z,41.47
2018-02-10T00:29:22.777Z,50.77
2018-02-10T00:31:50.273Z,45.90
2018-02-10T00:34:17.696Z,47.77
2018-02-10T00:36:45.327Z,46.00
2018-02-10T00:39:12.776Z,46.27
2018-02-10T00:41:40.221Z,45.33
2018-02-10T00:44:08.050Z,48.83
2018-02-10T00:46:35.635Z,45.73
2018-02-10T00:49:03.094Z,49.03
2018-02-10T00:51:30.697Z,45.73
2018-02-10T00:53:58.145Z,54.87
2018-02-10T00:56:25.626Z,49.17
2018-02-10T00:58:53.251Z,52.57
2018-02-10T01:01:20.709Z,56.60
2018-02-10T01:03:48.173Z,48.07
2018-02-10T01:06:15.840Z,47.20
2018-02-10T01:08:43.300Z,54.60
2018-02-10T01:11:10.748Z,48.77
2018-02-10T01:13:38.399Z,51.40
2018-02-10T01:16:05.861Z,51.93
2018-02-10T01:18:33.310Z,55.53
2018-02-10T01:21:00.993Z,45.20
2018-02-10T01:23:28.444Z,46.03
2018-02-10T01:25:55.893Z,50.63
2018-02-10T01:28:23.373Z,51.80
2018-02-10T01:30:50.828Z,47.90
2018-02-10T01:33:18.275Z,54.83
2018-02-10T01:35:45.933Z,49.47
2018-02-10T01:38:13.372Z,47.60
2018-02-10T01:40:40.821Z,59.43
2018-02-10T01:43:08.613Z,50.13
2018-02-10T01:45:36.070Z,50.03
2018-02-10T01:48:03.536Z,47.53
2018-02-10T01:50:31.017Z,49.63
2018-02-10T01:52:58.476Z,48.27
2018-02-10T01:55:25.929Z,50.20
2018-02-10T01:57:53.404Z,52.20
2018-02-10T02:00:21.092Z,48.90
2018-02-10T02:02:48.564Z,50.37
2018-02-10T02:05:16.236Z,57.50
2018-02-10T02:07:43.689Z,40.43
2018-02-10T02:10:11.132Z,44.77
2018-02-10T02:12:38.812Z,48.97
2018-02-10T02:15:06.258Z,52.00
2018-02-10T02:17:33.747Z,47.83
2018-02-10T02:20:01.213Z,50.70
2018-02-10T02:22:28.661Z,47.23
2018-02-10T02:24:56.101Z,46.07
2018-02-10T02:27:23.576Z,47.63
2018-02-10T02:29:51.065Z,48.93
2018-02-10T02:32:18.558Z,47.90
2018-02-10T02:34:46.019Z,42.40
2018-02-10T02:37:13.502Z,48.37
2018-02-10T02:39:40.985Z,52.27
2018-02-10T02:42:08.450Z,56.40
2018-02-10T02:44:35.896Z,49.33
2018-02-10T02:47:03.605Z,63.30
2018-02-10T02:49:31.049Z,51.70
2018-02-10T02:51:58.514Z,53.07
2018-02-10T02:54:25.988Z,57.97
2018-02-10T02:56:53.447Z,51.10
2018-02-10T02:59:21.104Z,52.43
2018-02-10T03:01:48.573Z,50.40
2018-02-10T03:04:16.017Z,44.53
2018-02-10T03:06:43.498Z,55.40
2018-02-10T03:09:10.944Z,39.60
2018-02-10T03:11:38.433Z,44.13
2018-02-10T03:14:05.886Z,49.07
2018-02-10T03:16:33.333Z,54.70
2018-02-10T03:19:00.799Z,50.97
2018-02-10T03:21:28.245Z,54.13
2018-02-10T03:23:56.087Z,47.77
2018-02-10T03:26:23.547Z,55.77
2018-02-10T03:28:50.992Z,53.40
2018-02-10T03:31:18.479Z,65.53
2018-02-10T03:33:45.925Z,49.03
2018-02-10T03:36:13.553Z,52.13
2018-02-10T03:38:41.004Z,49.97
2018-02-10T03:41:08.879Z,52.57
2018-02-10T03:43:36.341Z,46.37
2018-02-10T03:46:03.788Z,49.47
2018-02-10T03:48:31.454Z,61.17
2018-02-10T03:50:58.912Z,51.93
2018-02-10T03:53:26.357Z,57.63
2018-02-10T03:55:53.824Z,52.03
2018-02-10T03:58:21.286Z,45.60
2018-02-10T04:00:48.769Z,69.13
2018-02-10T04:03:16.220Z,50.23
2018-02-10T04:05:43.749Z,54.37
2018-02-10T04:08:11.217Z,64.77
2018-02-10T04:10:38.661Z,59.70
2018-02-10T04:13:06.138Z,54.90
2018-02-10T04:15:33.591Z,60.07
2018-02-10T04:18:01.045Z,55.07
2018-02-10T04:20:28.513Z,52.60
2018-02-10T04:22:55.981Z,53.33
2018-02-10T04:25:23.711Z,44.70
2018-02-10T04:27:51.156Z,50.23
2018-02-10T04:30:18.620Z,45.83
2018-02-10T04:32:46.089Z,48.93
2018-02-10T04:35:13.560Z,48.80
2018-02-10T04:37:41.224Z,59.63
2018-02-10T04:40:08.688Z,49.20
2018-02-10T04:42:36.132Z,53.80
2018-02-10T04:45:03.637Z,51.33
2018-02-10T04:47:31.081Z,51.90
2018-02-10T04:49:59.024Z,60.63
2018-02-10T04:52:26.464Z,55.10
2018-02-10T04:54:53.953Z,62.43
2018-02-10T04:57:21.421Z,55.77
2018-02-10T04:59:48.881Z,51.73
2018-02-10T05:02:16.396Z,50.57
2018-02-10T05:04:43.848Z,60.70
2018-02-10T05:07:11.304Z,55.47
2018-02-10T05:09:38.805Z,56.67
2018-02-10T05:12:06.255Z,53.93
2018-02-10T05:14:33.763Z,70.27
2018-02-10T05:17:01.209Z,50.37
2018-02-10T05:19:28.660Z,50.87
2018-02-10T05:21:56.135Z,58.03
2018-02-10T05:24:23.591Z,59.80
2018-02-10T05:26:51.179Z,53.10
2018-02-10T05:29:18.620Z,54.50
2018-02-10T05:31:46.117Z,56.53
2018-02-10T05:34:13.600Z,57.57
2018-02-10T05:36:41.045Z,47.60
2018-02-10T05:39:08.633Z,48.53
2018-02-10T05:41:36.088Z,52.07
2018-02-10T05:44:03.560Z,53.33
2018-02-10T05:46:31.031Z,58.27
2018-02-10T05:48:58.473Z,54.23
2018-02-10T05:51:25.948Z,63.10
2018-02-10T05:53:53.392Z,50.57
2018-02-10T05:56:20.862Z,55.00
2018-02-10T05:58:48.328Z,55.80
2018-02-10T06:01:15.784Z,49.60
2018-02-10T06:03:43.512Z,53.30
2018-02-10T06:06:10.967Z,43.93
2018-02-10T06:08:38.429Z,42.87
2018-02-10T06:11:05.913Z,50.17
2018-02-10T06:13:33.513Z,44.13
2018-02-10T06:16:01.205Z,40.03
2018-02-10T06:18:28.673Z,43.73
2018-02-10T06:20:56.129Z,48.20
2018-02-10T06:23:23.605Z,37.90
2018-02-10T06:25:51.058Z,45.70
2018-02-10T06:28:18.549Z,41.30
2018-02-10T06:30:46.001Z,47.13
2018-02-10T06:33:13.447Z,44.83
2018-02-10T06:35:40.937Z,41.17
2018-02-10T06:38:08.380Z,45.00
2018-02-10T06:40:35.884Z,51.50
2018-02-10T06:43:03.357Z,49.20
2018-02-10T06:45:30.809Z,45.03
2018-02-10T06:47:58.306Z,41.80
2018-02-10T06:50:25.757Z,52.00
2018-02-10T06:52:53.356Z,45.20
2018-02-10T06:55:20.797Z,47.03
2018-02-10T06:57:48.268Z,42.73
2018-02-10T07:00:15.757Z,47.13
2018-02-10T07:02:43.210Z,53.00
2018-02-10T07:05:10.841Z,43.77
2018-02-10T07:07:38.295Z,47.00
2018-02-10T07:10:05.755Z,53.53
2018-02-10T07:12:33.221Z,44.47
2018-02-10T07:15:00.669Z,50.83
2018-02-10T07:17:28.155Z,56.60
2018-02-10T07:19:55.607Z,46.63
2018-02-10T07:22:23.049Z,46.40
2018-02-10T07:24:50.588Z,42.23
2018-02-10T07:27:18.029Z,51.10
2018-02-10T07:29:45.713Z,40.33
2018-02-10T07:32:13.172Z,45.57
2018-02-10T07:34:40.656Z,45.80
2018-02-10T07:37:08.124Z,49.10
2018-02-10T07:39:35.594Z,44.57
2018-02-10T07:42:03.099Z,40.77
2018-02-10T07:44:30.589Z,39.00
2018-02-10T07:46:58.041Z,44.87
2018-02-10T07:49:25.524Z,39.43
2018-02-10T07:51:53.033Z,38.47
2018-02-10T07:54:20.512Z,34.47
2018-02-10T07:56:48.131Z,34.77
2018-02-10T07:59:15.594Z,25.40
2018-02-10T08:01:43.070Z,28.07
2018-02-10T08:04:10.520Z,25.97
2018-02-10T08:06:38.176Z,25.13
2018-02-10T08:09:05.758Z,29.33
2018-02-10T08:11:33.309Z,31.00
2018-02-10T08:14:00.776Z,26.63
2018-02-10T08:16:28.225Z,24.13
2018-02-10T08:18:55.868Z,28.50
2018-02-10T08:21:23.330Z,28.10
2018-02-10T08:23:50.794Z,30.23
2018-02-10T08:26:18.275Z,26.37
2018-02-10T08:28:45.740Z,27.43
2018-02-10T08:31:13.453Z,26.57
2018-02-10T08:33:40.916Z,23.47
2018-02-10T08:36:08.389Z,28.73
2018-02-10T08:38:35.856Z,27.80
2018-02-10T08:41:03.429Z,21.63
2018-02-10T08:43:31.141Z,26.93
2018-02-10T08:45:58.610Z,27.37
2018-02-10T08:48:26.075Z,24.60
2018-02-10T08:50:53.544Z,25.07
2018-02-10T08:53:20.988Z,26.63
2018-02-10T08:55:48.769Z,26.87
2018-02-10T08:58:16.216Z,24.77
2018-02-10T09:00:43.672Z,23.70
2018-02-10T09:03:11.141Z,24.73
2018-02-10T09:05:38.596Z,23.67
2018-02-10T09:08:06.229Z,18.67
2018-02-10T09:10:33.682Z,27.00
2018-02-10T09:13:01.138Z,24.10
2018-02-10T09:15:28.604Z,27.57
2018-02-10T09:17:56.052Z,32.23
2018-02-10T09:20:23.573Z,20.33
2018-02-10T09:22:51.002Z,21.60
2018-02-10T09:25:18.448Z,24.87
2018-02-10T09:27:45.916Z,17.40
2018-02-10T09:30:13.361Z,21.27
2018-02-10T09:32:40.977Z,20.73
2018-02-10T09:35:08.426Z,18.60
2018-02-10T09:37:35.874Z,16.60
2018-02-10T09:40:03.346Z,18.27
2018-02-10T09:42:30.805Z,24.03
2018-02-10T09:44:58.278Z,20.97
2018-02-10T09:47:25.753Z,17.50
2018-02-10T09:49:53.215Z,18.97
2018-02-10T09:52:20.698Z,18.77
2018-02-10T09:54:48.150Z,20.50
2018-02-10T09:57:15.877Z,25.70
2018-02-10T09:59:43.334Z,19.20
2018-02-10T10:02:10.781Z,29.37
2018-02-10T10:04:38.245Z,20.97
2018-02-10T10:07:06.088Z,17.27
2018-02-10T10:09:33.632Z,18.00
2018-02-10T10:12:01.077Z,21.67
2018-02-10T10:14:28.537Z,19.13
2018-02-10T10:16:56.013Z,16.43
2018-02-10T10:19:23.487Z,21.00
2018-02-10T10:21:51.037Z,13.80
2018-02-10T10:24:18.495Z,17.60
2018-02-10T10:26:45.960Z,19.33
2018-02-10T10:29:13.448Z,20.10
2018-02-10T10:31:40.895Z,18.90
2018-02-10T10:34:08.398Z,19.70
2018-02-10T10:36:35.953Z,23.20
2018-02-10T10:39:03.419Z,19.10
2018-02-10T10:41:30.893Z,17.73
2018-02-10T10:43:58.337Z,24.13
2018-02-10T10:46:26.005Z,27.53
2018-02-10T10:48:53.458Z,12.60
2018-02-10T10:51:20.933Z,17.83
2018-02-10T10:53:48.400Z,11.00
2018-02-10T10:56:15.848Z,11.93
2018-02-10T10:58:43.712Z,11.73
2018-02-10T11:01:11.184Z,13.67
2018-02-10T11:03:38.645Z,12.50
2018-02-10T11:06:06.163Z,14.27
2018-02-10T11:08:33.608Z,14.80
2018-02-10T11:11:01.328Z,13.20
2018-02-10T11:13:28.781Z,10.70
2018-02-10T11:15:56.225Z,11.47
2018-02-10T11:18:23.700Z,13.30
2018-02-10T11:20:51.151Z,11.00
2018-02-10T11:23:18.867Z,12.63
2018-02-10T11:25:46.386Z,13.30
2018-02-10T11:28:13.832Z,11.13
2018-02-10T11:30:41.293Z,10.83
2018-02-10T11:33:08.737Z,10.83
2018-02-10T11:35:36.378Z,10.87
2018-02-10T11:38:03.819Z,7.10
2018-02-10T11:40:31.288Z,10.00
2018-02-10T11:42:59.005Z,10.03
2018-02-10T11:45:26.453Z,9.87
2018-02-10T11:47:54.081Z,10.23
2018-02-10T11:50:21.526Z,10.93
2018-02-10T11:52:48.985Z,8.33
2018-02-10T11:55:16.445Z,9.37
2018-02-10T11:57:43.880Z,8.43
2018-02-10T12:00:11.364Z,6.30
2018-02-10T12:02:38.834Z,7.90
2018-02-10T12:05:06.312Z,6.73
2018-02-10T12:07:33.769Z,7.33
2018-02-10T12:10:01.213Z,6.03
2018-02-10T12:12:28.696Z,5.57
2018-02-10T12:14:56.156Z,5.83
2018-02-10T12:17:23.605Z,7.00
2018-02-10T12:19:51.070Z,7.37
2018-02-10T12:22:18.513Z,7.37
2018-02-10T12:24:45.997Z,5.60
2018-02-10T12:27:13.432Z,6.47
2018-02-10T12:29:40.884Z,5.87
2018-02-10T12:32:08.377Z,7.80
2018-02-10T12:34:35.829Z,6.83
2018-02-10T12:37:03.408Z,12.00
2018-02-10T12:39:30.876Z,6.70
2018-02-10T12:41:58.348Z,9.07
2018-02-10T12:44:25.812Z,5.00
2018-02-10T12:46:53.358Z,11.90
2018-02-10T12:49:26.281Z,5.33
2018-02-10T12:51:53.769Z,8.20
2018-02-10T12:54:21.210Z,6.23
2018-02-10T12:56:48.649Z,7.90
2018-02-10T12:59:16.092Z,6.60
2018-02-10T13:01:43.553Z,7.77
2018-02-10T13:04:10.998Z,7.20
2018-02-10T13:06:38.489Z,6.13
2018-02-10T13:09:05.962Z,10.73
2018-02-10T13:11:33.399Z,13.90
2018-02-10T13:14:00.865Z,10.03
2018-02-10T13:16:28.301Z,6.97
2018-02-10T13:18:55.766Z,9.07
2018-02-10T13:21:23.233Z,13.33
2018-02-10T13:23:50.670Z,8.20
2018-02-10T13:26:18.140Z,10.80
2018-02-10T13:28:45.576Z,7.37
2018-02-10T13:31:13.182Z,6.53
2018-02-10T13:33:40.624Z,5.60
2018-02-10T13:36:08.068Z,11.90
2018-02-10T13:38:35.541Z,8.53
2018-02-10T13:41:02.985Z,5.53
2018-02-10T13:43:30.776Z,6.07
2018-02-10T13:45:58.217Z,7.27
2018-02-10T13:48:40.624Z,8.60
2018-02-10T13:51:08.065Z,8.47
2018-02-10T13:53:35.520Z,8.40
2018-02-10T13:56:02.979Z,7.13
2018-02-10T13:58:31.295Z,9.07
2018-02-10T14:00:59.350Z,7.47
2018-02-10T14:03:27.066Z,10.50
2018-02-10T14:05:54.515Z,9.50
2018-02-10T14:08:21.976Z,10.27
2018-02-10T14:10:49.424Z,11.47
2018-02-10T14:13:17.148Z,15.10
2018-02-10T14:15:44.605Z,12.83
2018-02-10T14:18:12.056Z,9.93
2018-02-10T14:20:39.524Z,12.23
2018-02-10T14:23:07.001Z,14.70
2018-02-10T14:25:34.489Z,10.83
2018-02-10T14:28:01.937Z,12.20
2018-02-10T14:30:29.386Z,14.80
2018-02-10T14:32:56.869Z,14.57
2018-02-10T14:35:24.311Z,16.33
2018-02-10T14:37:51.808Z,12.10
2018-02-10T14:40:19.264Z,12.90
2018-02-10T14:42:46.712Z,13.40
2018-02-10T14:45:14.223Z,14.93
2018-02-10T14:47:41.673Z,16.23
2018-02-10T14:50:09.300Z,16.50
2018-02-10T14:52:36.753Z,17.20
2018-02-10T14:55:04.197Z,15.33
2018-02-10T14:57:31.677Z,13.40
2018-02-10T14:59:59.142Z,14.33
2018-02-10T15:02:26.794Z,19.63
2018-02-10T15:04:54.248Z,13.73
2018-02-10T15:07:21.713Z,19.03
2018-02-10T15:09:49.185Z,14.53
2018-02-10T15:12:16.637Z,12.90
2018-02-10T15:14:44.281Z,14.03
2018-02-10T15:17:11.731Z,17.30
2018-02-10T15:19:39.177Z,14.17
2018-02-10T15:22:06.676Z,15.53
2018-02-10T15:24:34.128Z,20.10
2018-02-10T15:27:01.700Z,26.20
2018-02-10T15:29:40.890Z,16.70
2018-02-10T15:32:20.341Z,15.07
2018-02-10T15:34:58.809Z,12.90
2018-02-10T15:37:26.672Z,13.13
2018-02-10T15:39:54.179Z,18.40
2018-02-10T15:42:21.638Z,19.93
2018-02-10T15:44:49.127Z,12.13
2018-02-10T15:47:16.603Z,16.07
2018-02-10T15:49:44.074Z,20.87
2018-02-10T15:52:11.520Z,18.57
2018-02-10T15:54:38.965Z,19.87
2018-02-10T15:57:06.429Z,18.50
2018-02-10T15:59:33.880Z,15.37
2018-02-10T16:02:01.405Z,14.83
2018-02-10T16:04:28.868Z,14.90
2018-02-10T16:06:56.329Z,16.40
2018-02-10T16:09:23.830Z,18.93
2018-02-10T16:11:51.278Z,20.30
2018-02-10T16:14:18.861Z,13.93
2018-02-10T16:16:46.332Z,17.53
2018-02-10T16:19:13.781Z,21.67
2018-02-10T16:21:41.245Z,21.97
2018-02-10T16:24:08.703Z,16.77
2018-02-10T16:26:36.992Z,19.17
2018-02-10T16:29:04.442Z,15.77
2018-02-10T16:31:31.895Z,18.80
2018-02-10T16:33:59.389Z,19.70
2018-02-10T16:36:26.832Z,22.10
2018-02-10T16:38:54.356Z,18.13
2018-02-10T16:41:21.817Z,16.77
2018-02-10T16:43:49.264Z,16.33
2018-02-10T16:46:16.772Z,22.60
2018-02-10T16:48:44.239Z,17.40
2018-02-10T16:51:11.839Z,18.43
2018-02-10T16:53:39.290Z,18.10
2018-02-10T16:56:06.813Z,16.83
2018-02-10T16:58:34.303Z,20.97
2018-02-10T17:01:01.781Z,18.63
2018-02-10T17:03:29.444Z,19.90
2018-02-10T17:05:56.889Z,18.70
2018-02-10T17:08:24.340Z,21.73
2018-02-10T17:10:51.813Z,23.60
2018-02-10T17:13:19.261Z,25.13
2018-02-10T17:15:46.933Z,25.97
2018-02-10T17:18:14.383Z,31.10
2018-02-10T17:20:41.833Z,28.20
2018-02-10T17:23:09.299Z,34.67
2018-02-10T17:25:36.753Z,31.60
2018-02-10T17:28:04.404Z,27.77
2018-02-10T17:30:31.849Z,21.10
2018-02-10T17:32:59.297Z,24.37
2018-02-10T17:35:26.760Z,26.47
2018-02-10T17:37:54.205Z,24.83
2018-02-10T17:40:21.900Z,22.93
2018-02-10T17:42:49.389Z,27.03
2018-02-10T17:45:16.851Z,24.10
2018-02-10T17:47:44.321Z,21.20
2018-02-10T17:50:11.776Z,18.60
2018-02-10T17:52:39.490Z,23.60
2018-02-10T17:55:06.945Z,18.20
2018-02-10T17:57:34.394Z,29.10
2018-02-10T18:00:01.865Z,24.77
2018-02-10T18:02:29.316Z,21.87
2018-02-10T18:04:57.174Z,33.03
2018-02-10T18:07:24.641Z,23.20
2018-02-10T18:09:52.100Z,22.63
2018-02-10T18:12:19.575Z,25.63
2018-02-10T18:14:47.031Z,21.47
2018-02-10T18:17:14.658Z,24.40
2018-02-10T18:19:42.137Z,23.73
2018-02-10T18:22:09.590Z,24.53
2018-02-10T18:24:37.076Z,25.43
2018-02-10T18:27:04.545Z,25.40
2018-02-10T18:29:32.270Z,21.97
2018-02-10T18:31:59.721Z,23.40
2018-02-10T18:34:27.205Z,20.60
2018-02-10T18:36:54.693Z,21.27
2018-02-10T18:39:22.161Z,20.00
2018-02-10T18:41:49.850Z,19.27
2018-02-10T18:44:17.302Z,18.03
2018-02-10T18:46:44.759Z,21.33
2018-02-10T18:49:12.289Z,18.53
2018-02-10T18:51:39.741Z,21.70
2018-02-10T18:54:07.457Z,20.93
2018-02-10T18:56:34.928Z,22.47
2018-02-10T18:59:02.382Z,23.13
2018-02-10T19:01:29.869Z,21.87
2018-02-10T19:03:57.312Z,20.13
2018-02-10T19:06:24.789Z,23.80
2018-02-10T19:08:52.254Z,22.10
2018-02-10T19:11:19.748Z,18.03
2018-02-10T19:13:47.218Z,23.70
2018-02-10T19:16:14.669Z,20.70
2018-02-10T19:18:42.354Z,22.37
2018-02-10T19:21:09.789Z,25.73
2018-02-10T19:23:37.237Z,22.63
2018-02-10T19:26:04.711Z,22.43
2018-02-10T19:28:32.194Z,22.00
2018-02-10T19:30:59.790Z,20.13
2018-02-10T19:33:27.257Z,22.80
2018-02-10T19:35:54.754Z,20.80
2018-02-10T19:38:22.225Z,26.90
2018-02-10T19:40:49.736Z,24.50
2018-02-10T19:43:17.377Z,29.33
2018-02-10T19:45:44.831Z,27.13
2018-02-10T19:48:12.277Z,22.63
2018-02-10T19:50:39.750Z,25.33
2018-02-10T19:53:07.213Z,21.37
2018-02-10T19:55:34.749Z,21.90
2018-02-10T19:58:02.217Z,18.73
2018-02-10T20:00:29.681Z,20.30
2018-02-10T20:02:57.129Z,18.43
2018-02-10T20:05:24.602Z,18.70
2018-02-10T20:07:52.078Z,19.33
2018-02-10T20:10:19.541Z,13.63
2018-02-10T20:12:47.032Z,17.47
2018-02-10T20:15:14.502Z,13.47
2018-02-10T20:17:41.957Z,13.73
2018-02-10T20:20:09.429Z,12.80
2018-02-10T20:22:36.883Z,15.30
2018-02-10T20:25:04.541Z,15.87
2018-02-10T20:27:31.989Z,13.50
2018-02-10T20:29:59.437Z,14.30
2018-02-10T20:32:26.905Z,13.13
2018-02-10T20:34:54.348Z,13.20
2018-02-10T20:37:22.324Z,12.67
2018-02-10T20:39:49.772Z,19.93
2018-02-10T20:42:17.217Z,14.47
2018-02-10T20:44:44.684Z,17.90
2018-02-10T20:47:12.166Z,24.50
2018-02-10T20:49:39.928Z,16.63
2018-02-10T20:52:07.373Z,13.23
2018-02-10T20:54:34.833Z,14.50
2018-02-10T20:57:02.549Z,15.73
2018-02-10T20:59:30.057Z,11.90
2018-02-10T21:01:57.528Z,17.37
2018-02-10T21:04:24.997Z,16.37
2018-02-10T21:06:52.445Z,12.40
2018-02-10T21:09:19.913Z,10.27
2018-02-10T21:11:47.408Z,12.30
2018-02-10T21:14:15.209Z,10.83
2018-02-10T21:16:42.645Z,9.97
2018-02-10T21:19:10.089Z,9.60
2018-02-10T21:21:37.581Z,11.37
2018-02-10T21:24:05.021Z,9.90
2018-02-10T21:26:32.803Z,10.67
2018-02-10T21:29:00.270Z,7.17
2018-02-10T21:31:27.721Z,6.93
2018-02-10T21:33:55.177Z,7.67
2018-02-10T21:36:22.611Z,9.37
2018-02-10T21:38:50.169Z,7.73
2018-02-10T21:41:17.614Z,10.63
2018-02-10T21:43:45.070Z,9.50
2018-02-10T21:46:12.528Z,8.17
2018-02-10T21:48:39.976Z,7.83
2018-02-10T21:51:07.769Z,9.60
2018-02-10T21:53:35.251Z,15.57
2018-02-10T21:56:02.733Z,11.90
2018-02-10T21:58:30.205Z,5.80
2018-02-10T22:00:57.652Z,5.80
2018-02-10T22:03:25.307Z,10.57
2018-02-10T22:05:52.821Z,7.77
2018-02-10T22:08:20.261Z,12.23
2018-02-10T22:10:47.717Z,6.57
2018-02-10T22:13:15.169Z,6.77
2018-02-10T22:15:42.641Z,5.83
2018-02-10T22:18:10.078Z,6.13
2018-02-10T22:20:37.517Z,7.90
2018-02-10T22:23:04.997Z,9.10
2018-02-10T22:25:32.447Z,6.13
2018-02-10T22:28:00.133Z,18.67
2018-02-10T22:30:27.568Z,6.33
2018-02-10T22:32:55.001Z,6.67
2018-02-10T22:35:22.456Z,7.97
2018-02-10T22:37:49.893Z,9.23
2018-02-10T22:40:17.529Z,13.17
2018-02-10T22:42:44.970Z,7.40
2018-02-10T22:45:12.460Z,17.33
2018-02-10T22:47:39.942Z,13.73
2018-02-10T22:50:07.381Z,6.60
2018-02-10T22:52:35.004Z,10.93
2018-02-10T22:55:02.461Z,13.27
2018-02-10T22:57:29.904Z,16.00
2018-02-10T22:59:57.377Z,8.77
2018-02-10T23:02:24.848Z,14.33
2018-02-10T23:04:52.491Z,14.37
2018-02-10T23:07:19.939Z,9.10
2018-02-10T23:09:47.405Z,9.67
2018-02-10T23:12:14.865Z,13.67
2018-02-10T23:14:42.312Z,14.33
2018-02-10T23:17:09.777Z,13.70
2018-02-10T23:19:37.213Z,9.07
2018-02-10T23:22:04.658Z,17.43
2018-02-10T23:24:32.121Z,11.27
2018-02-10T23:26:59.557Z,11.23
2018-02-10T23:29:27.270Z,12.70
2018-02-10T23:31:54.709Z,15.17
2018-02-10T23:34:22.194Z,7.10
2018-02-10T23:36:49.666Z,7.00
2018-02-10T23:39:17.120Z,9.07
2018-02-10T23:41:44.729Z,14.80
2018-02-10T23:44:12.168Z,14.17
2018-02-10T23:46:39.609Z,14.30
2018-02-10T23:49:07.096Z,12.60
2018-02-10T23:51:34.533Z,6.93
2018-02-10T23:54:02.129Z,7.37
2018-02-10T23:56:29.566Z,6.53
2018-02-10T23:58:57.004Z,6.40
